createdAt,value
2022-09-20T00:01:08.890Z,0.40
2022-09-20T00:03:37.325Z,0.70
2022-09-20T00:06:08.816Z,0.50
2022-09-20T00:08:36.937Z,0.30
2022-09-20T00:11:07.046Z,0.60
2022-09-20T00:13:36.421Z,0.55
2022-09-20T00:16:06.462Z,0.57
2022-09-20T00:18:34.356Z,0.82
2022-09-20T00:21:02.420Z,0.57
2022-09-20T00:23:32.126Z,0.65
2022-09-20T00:26:01.502Z,0.60
2022-09-20T00:28:30.240Z,0.50
2022-09-20T00:30:58.435Z,0.52
2022-09-20T00:33:47.292Z,0.60
2022-09-20T00:36:14.452Z,0.60
2022-09-20T00:38:43.711Z,0.60
2022-09-20T00:41:11.927Z,0.40
2022-09-20T00:43:41.718Z,0.52
2022-09-20T00:46:21.448Z,0.55
2022-09-20T00:48:50.486Z,0.50
2022-09-20T00:51:25.305Z,0.68
2022-09-20T00:53:57.194Z,0.60
2022-09-20T00:56:28.161Z,0.82
2022-09-20T00:59:02.789Z,1.05
2022-09-20T01:01:31.859Z,0.70
2022-09-20T01:04:00.834Z,1.00
2022-09-20T01:06:29.811Z,0.68
2022-09-20T01:09:02.507Z,0.73
2022-09-20T01:11:30.994Z,0.90
2022-09-20T01:13:58.797Z,0.68
2022-09-20T01:16:28.490Z,0.45
2022-09-20T01:18:59.512Z,0.40
2022-09-20T01:21:27.885Z,0.40
2022-09-20T01:24:06.360Z,0.60
2022-09-20T01:26:46.021Z,0.63
2022-09-20T01:29:26.981Z,0.50
2022-09-20T01:31:57.960Z,0.65
2022-09-20T01:34:32.428Z,0.82
2022-09-20T01:37:10.539Z,0.40
2022-09-20T01:39:48.675Z,0.82
2022-09-20T01:42:16.705Z,0.40
2022-09-20T01:44:55.515Z,0.70
2022-09-20T01:47:32.483Z,0.70
2022-09-20T01:50:13.056Z,0.30
2022-09-20T01:53:11.692Z,0.43
2022-09-20T01:56:08.490Z,0.70
2022-09-20T01:59:23.988Z,0.73
2022-09-20T02:02:34.350Z,0.40
2022-09-20T02:05:28.791Z,0.30
2022-09-20T02:08:35.100Z,0.73
2022-09-20T02:11:13.818Z,0.38
2022-09-20T02:14:06.197Z,0.47
2022-09-20T02:16:49.648Z,0.80
2022-09-20T02:19:31.698Z,0.70
2022-09-20T02:22:20.391Z,0.50
2022-09-20T02:24:59.369Z,0.88
2022-09-20T02:27:36.190Z,0.88
2022-09-20T02:30:20.826Z,0.50
2022-09-20T02:33:19.468Z,0.50
2022-09-20T02:36:08.027Z,0.60
2022-09-20T02:38:53.359Z,0.70
2022-09-20T02:41:52.482Z,0.70
2022-09-20T02:44:30.343Z,0.68
2022-09-20T02:47:07.155Z,1.05
2022-09-20T02:49:47.004Z,0.60
2022-09-20T02:52:24.893Z,0.65
2022-09-20T02:55:04.378Z,0.45
2022-09-20T02:57:44.071Z,0.38
2022-09-20T03:00:16.213Z,0.47
2022-09-20T03:02:56.380Z,0.50
2022-09-20T03:05:30.874Z,0.40
2022-09-20T03:08:16.847Z,0.88
2022-09-20T03:10:52.887Z,0.35
2022-09-20T03:13:30.820Z,0.32
2022-09-20T03:16:10.204Z,0.60
2022-09-20T03:18:48.587Z,0.40
2022-09-20T03:21:32.825Z,0.50
2022-09-20T03:24:09.093Z,0.32
2022-09-20T03:26:52.039Z,0.82
2022-09-20T03:29:35.391Z,0.63
2022-09-20T03:32:18.382Z,0.73
2022-09-20T03:34:57.181Z,0.60
2022-09-20T03:37:45.163Z,0.63
2022-09-20T03:40:41.679Z,0.40
2022-09-20T03:43:30.191Z,0.60
2022-09-20T03:46:11.024Z,0.50
2022-09-20T03:49:07.125Z,0.50
2022-09-20T03:51:48.277Z,0.60
2022-09-20T03:54:51.060Z,0.40
2022-09-20T03:57:50.771Z,0.65
2022-09-20T04:00:25.524Z,0.50
2022-09-20T04:03:14.954Z,0.45
2022-09-20T04:05:52.585Z,0.30
2022-09-20T04:08:31.986Z,0.85
2022-09-20T04:11:06.182Z,0.43
2022-09-20T04:13:38.652Z,0.65
2022-09-20T04:16:23.758Z,0.50
2022-09-20T04:18:57.472Z,0.60
2022-09-20T04:21:32.027Z,0.63
2022-09-20T04:24:05.031Z,0.47
2022-09-20T04:26:37.091Z,0.73
2022-09-20T04:29:20.807Z,0.45
2022-09-20T04:31:57.025Z,0.73
2022-09-20T04:34:52.395Z,0.50
2022-09-20T04:37:27.459Z,0.80
2022-09-20T04:40:03.387Z,0.70
2022-09-20T04:43:07.774Z,0.55
2022-09-20T04:46:29.986Z,0.65
2022-09-20T04:49:31.378Z,0.60
2022-09-20T04:52:48.150Z,0.47
2022-09-20T04:55:56.872Z,0.47
2022-09-20T04:58:38.478Z,0.32
2022-09-20T05:01:58.228Z,0.40
2022-09-20T05:05:13.765Z,0.43
2022-09-20T05:08:17.992Z,0.30
2022-09-20T05:11:13.373Z,0.60
2022-09-20T05:13:58.012Z,0.63
2022-09-20T05:16:39.618Z,0.50
2022-09-20T05:19:27.478Z,0.43
2022-09-20T05:22:19.128Z,0.40
2022-09-20T05:25:15.507Z,0.40
2022-09-20T05:27:48.588Z,0.80
2022-09-20T05:30:25.497Z,0.52
2022-09-20T05:33:03.251Z,0.57
2022-09-20T05:35:38.487Z,0.30
2022-09-20T05:38:16.847Z,0.57
2022-09-20T05:41:09.231Z,0.68
2022-09-20T05:43:44.014Z,0.30
2022-09-20T05:46:22.340Z,0.40
2022-09-20T05:48:58.209Z,0.60
2022-09-20T05:51:43.027Z,0.60
2022-09-20T05:54:48.545Z,0.68
2022-09-20T05:57:30.927Z,0.25
2022-09-20T06:00:07.404Z,0.60
2022-09-20T06:02:43.446Z,0.50
2022-09-20T06:05:16.730Z,0.30
2022-09-20T06:07:58.515Z,0.60
2022-09-20T06:10:47.177Z,0.55
2022-09-20T06:13:34.455Z,0.60
2022-09-20T06:16:05.090Z,0.70
2022-09-20T06:18:39.723Z,0.70
2022-09-20T06:21:20.835Z,0.57
2022-09-20T06:23:48.773Z,0.50
2022-09-20T06:26:23.583Z,0.60
2022-09-20T06:28:58.372Z,0.20
2022-09-20T06:31:26.936Z,0.40
2022-09-20T06:33:58.417Z,0.63
2022-09-20T06:36:48.936Z,0.43
2022-09-20T06:39:46.052Z,0.60
2022-09-20T06:42:15.260Z,0.60
2022-09-20T06:44:43.317Z,0.30
2022-09-20T06:47:12.272Z,0.40
2022-09-20T06:49:42.298Z,0.40
2022-09-20T06:52:14.466Z,0.50
2022-09-20T06:54:45.617Z,0.77
2022-09-20T06:57:17.335Z,0.38
2022-09-20T06:59:45.582Z,0.40
2022-09-20T07:02:13.532Z,0.68
2022-09-20T07:04:41.493Z,0.63
2022-09-20T07:07:10.009Z,0.55
2022-09-20T07:09:38.247Z,0.68
2022-09-20T07:12:07.566Z,0.50
2022-09-20T07:14:37.012Z,0.45
2022-09-20T07:17:06.576Z,0.93
2022-09-20T07:19:35.161Z,0.50
2022-09-20T07:22:03.115Z,0.30
2022-09-20T07:24:32.206Z,0.47
2022-09-20T07:27:01.355Z,0.40
2022-09-20T07:29:30.193Z,0.40
2022-09-20T07:31:59.505Z,0.30
2022-09-20T07:34:27.620Z,0.68
2022-09-20T07:36:57.300Z,0.47
2022-09-20T07:39:25.158Z,0.40
2022-09-20T07:41:53.424Z,0.40
2022-09-20T07:44:25.274Z,0.35
2022-09-20T07:46:54.188Z,0.60
2022-09-20T07:49:23.624Z,0.22
2022-09-20T07:51:52.225Z,0.47
2022-09-20T07:54:20.721Z,0.40
2022-09-20T07:56:49.010Z,0.55
2022-09-20T07:59:17.413Z,0.30
2022-09-20T08:01:45.222Z,0.50
2022-09-20T08:04:13.587Z,0.85
2022-09-20T08:06:44.405Z,0.30
2022-09-20T08:09:13.520Z,1.00
2022-09-20T08:11:43.431Z,0.45
2022-09-20T08:14:16.008Z,0.40
2022-09-20T08:16:45.873Z,0.82
2022-09-20T08:19:17.417Z,0.50
2022-09-20T08:21:46.886Z,0.55
2022-09-20T08:24:16.283Z,0.38
2022-09-20T08:26:44.737Z,0.40
2022-09-20T08:29:13.338Z,0.52
2022-09-20T08:31:42.530Z,0.80
2022-09-20T08:34:14.867Z,0.80
2022-09-20T08:36:46.185Z,0.82
2022-09-20T08:42:14.325Z,0.50
2022-09-20T08:44:57.854Z,0.75
2022-09-20T08:47:28.810Z,0.50
2022-09-20T08:49:57.546Z,0.55
2022-09-20T08:52:36.168Z,0.80
2022-09-20T08:55:16.893Z,0.68
2022-09-20T08:57:48.950Z,0.80
2022-09-20T09:00:19.204Z,0.65
2022-09-20T09:02:47.688Z,0.60
2022-09-20T09:05:34.389Z,1.00
2022-09-20T09:08:07.779Z,0.90
2022-09-20T09:10:46.360Z,0.60
2022-09-20T09:13:23.299Z,1.10
2022-09-20T09:15:56.882Z,1.00
2022-09-20T09:18:32.648Z,1.25
2022-09-20T09:21:04.163Z,0.90
2022-09-20T09:23:41.135Z,1.05
2022-09-20T09:26:17.318Z,1.15
2022-09-20T09:28:45.111Z,1.00
2022-09-20T09:31:15.970Z,1.30
2022-09-20T09:33:46.992Z,1.13
2022-09-20T09:36:17.663Z,0.95
2022-09-20T09:38:47.637Z,0.88
2022-09-20T09:41:26.360Z,0.73
2022-09-20T09:44:01.544Z,0.88
2022-09-20T09:46:33.788Z,0.52
2022-09-20T09:49:17.255Z,0.70
2022-09-20T09:52:03.058Z,0.98
2022-09-20T09:54:35.577Z,0.70
2022-09-20T09:57:30.527Z,0.73
2022-09-20T10:00:17.763Z,0.70
2022-09-20T10:03:05.139Z,0.60
2022-09-20T10:05:42.246Z,0.55
2022-09-20T10:08:21.143Z,0.43
2022-09-20T10:11:02.352Z,0.38
2022-09-20T10:13:40.601Z,0.60
2022-09-20T10:16:16.091Z,0.80
2022-09-20T10:18:51.979Z,0.80
2022-09-20T10:21:39.086Z,0.43
2022-09-20T10:24:21.304Z,0.65
2022-09-20T10:27:16.138Z,0.50
2022-09-20T10:29:57.164Z,0.38
2022-09-20T10:32:39.178Z,0.50
2022-09-20T10:35:20.660Z,0.47
2022-09-20T10:38:13.110Z,0.50
2022-09-20T10:41:09.537Z,0.50
2022-09-20T10:43:54.016Z,0.47
2022-09-20T10:46:32.827Z,0.77
2022-09-20T10:49:08.514Z,0.50
2022-09-20T10:51:45.527Z,0.52
2022-09-20T10:54:30.228Z,0.68
2022-09-20T10:57:21.547Z,0.73
2022-09-20T10:59:57.825Z,0.50
2022-09-20T11:02:42.620Z,0.68
2022-09-20T11:05:27.012Z,0.57
2022-09-20T11:08:04.119Z,0.77
2022-09-20T11:10:36.956Z,0.80
2022-09-20T11:13:09.774Z,0.80
2022-09-20T11:15:43.371Z,0.38
2022-09-20T11:18:23.536Z,0.60
2022-09-20T11:20:59.307Z,0.73
2022-09-20T11:23:34.385Z,0.60
2022-09-20T11:26:10.831Z,0.60
2022-09-20T11:28:43.262Z,0.40
2022-09-20T11:31:16.835Z,0.40
2022-09-20T11:33:52.210Z,0.50
2022-09-20T11:36:24.704Z,0.40
2022-09-20T11:38:56.629Z,0.35
2022-09-20T11:41:27.372Z,0.45
2022-09-20T11:43:58.438Z,0.50
2022-09-20T11:46:34.335Z,0.35
2022-09-20T11:49:08.716Z,0.20
2022-09-20T11:52:02.977Z,0.40
2022-09-20T11:55:07.366Z,0.13
2022-09-20T11:57:35.440Z,0.30
2022-09-20T12:00:07.679Z,0.35
2022-09-20T12:02:38.184Z,0.40
2022-09-20T12:05:23.612Z,0.30
2022-09-20T12:07:55.356Z,0.30
2022-09-20T12:10:27.390Z,0.30
2022-09-20T12:13:00.475Z,0.45
2022-09-20T12:15:33.125Z,0.40
2022-09-20T12:18:32.918Z,0.25
2022-09-20T12:21:07.775Z,0.30
2022-09-20T12:24:23.770Z,0.30
2022-09-20T12:26:55.800Z,0.30
2022-09-20T12:29:57.259Z,0.40
2022-09-20T12:32:43.422Z,0.40
2022-09-20T12:35:57.871Z,0.28
2022-09-20T12:38:35.875Z,0.40
2022-09-20T12:41:10.186Z,0.60
2022-09-20T12:43:49.020Z,0.40
2022-09-20T12:46:27.253Z,0.50
2022-09-20T12:49:57.522Z,0.60
2022-09-20T12:52:50.277Z,0.47
2022-09-20T12:55:56.295Z,0.30
2022-09-20T12:58:34.672Z,0.40
2022-09-20T13:01:32.273Z,0.40
2022-09-20T13:04:37.586Z,0.45
2022-09-20T13:07:48.868Z,0.63
2022-09-20T13:10:30.273Z,0.30
2022-09-20T13:13:04.490Z,0.20
2022-09-20T13:15:33.137Z,0.43
2022-09-20T13:18:03.019Z,0.38
2022-09-20T13:20:34.913Z,0.38
2022-09-20T13:23:05.367Z,0.25
2022-09-20T13:25:35.256Z,0.40
2022-09-20T13:28:28.725Z,0.30
2022-09-20T13:31:35.659Z,0.30
2022-09-20T13:34:21.724Z,0.40
2022-09-20T13:36:55.960Z,0.45
2022-09-20T13:39:28.221Z,0.17
2022-09-20T13:42:02.217Z,0.28
2022-09-20T13:44:34.256Z,0.30
2022-09-20T13:47:02.454Z,0.30
2022-09-20T13:49:33.131Z,0.30
2022-09-20T13:52:13.796Z,0.15
2022-09-20T13:54:41.633Z,0.40
2022-09-20T13:57:18.325Z,0.30
2022-09-20T13:59:48.501Z,0.20
2022-09-20T14:02:23.539Z,0.22
2022-09-20T14:04:54.681Z,0.50
2022-09-20T14:07:25.878Z,0.35
2022-09-20T14:09:54.333Z,0.30
2022-09-20T14:12:23.710Z,0.40
2022-09-20T14:14:53.748Z,0.30
2022-09-20T14:17:24.477Z,0.30
2022-09-20T14:19:55.643Z,0.30
2022-09-20T14:22:26.200Z,0.50
2022-09-20T14:25:02.605Z,0.25
2022-09-20T14:27:31.417Z,0.20
2022-09-20T14:30:00.829Z,0.22
2022-09-20T14:32:44.401Z,0.20
2022-09-20T14:35:18.996Z,0.20
2022-09-20T14:37:49.523Z,0.20
2022-09-20T14:40:23.595Z,0.40
2022-09-20T14:42:54.627Z,0.15
2022-09-20T14:45:27.052Z,0.30
2022-09-20T14:47:58.408Z,0.20
2022-09-20T14:50:29.066Z,0.20
2022-09-20T14:53:19.390Z,0.20
2022-09-20T14:55:58.033Z,0.38
2022-09-20T14:58:26.243Z,0.30
2022-09-20T15:00:59.070Z,0.20
2022-09-20T15:03:31.959Z,0.30
2022-09-20T15:05:59.879Z,0.32
2022-09-20T15:08:28.036Z,0.25
2022-09-20T15:10:55.985Z,0.30
2022-09-20T15:13:23.939Z,0.20
2022-09-20T15:15:53.821Z,0.30
2022-09-20T15:18:26.239Z,0.35
2022-09-20T15:20:55.715Z,0.28
2022-09-20T15:23:23.574Z,0.30
2022-09-20T15:25:52.767Z,0.30
2022-09-20T15:28:21.421Z,0.30
2022-09-20T15:30:51.459Z,0.30
2022-09-20T15:33:20.872Z,0.20
2022-09-20T15:35:50.460Z,0.30
2022-09-20T15:38:19.779Z,0.35
2022-09-20T15:40:49.609Z,0.28
2022-09-20T15:43:19.581Z,0.30
2022-09-20T15:45:50.527Z,0.40
2022-09-20T15:48:20.812Z,0.60
2022-09-20T15:51:02.887Z,0.57
2022-09-20T15:53:33.499Z,0.40
2022-09-20T15:56:02.456Z,0.43
2022-09-20T15:58:35.436Z,0.30
2022-09-20T16:01:05.848Z,0.20
2022-09-20T16:03:34.307Z,0.30
2022-09-20T16:06:05.797Z,0.40
2022-09-20T16:08:34.691Z,0.50
2022-09-20T16:11:03.166Z,0.38
2022-09-20T16:13:31.340Z,0.40
2022-09-20T16:16:01.432Z,0.40
2022-09-20T16:18:47.691Z,0.40
2022-09-20T16:21:18.500Z,0.20
2022-09-20T16:23:49.316Z,0.55
2022-09-20T16:26:17.723Z,0.40
2022-09-20T16:28:47.751Z,0.50
2022-09-20T16:31:34.501Z,0.20
2022-09-20T16:34:03.728Z,0.50
2022-09-20T16:36:33.452Z,0.40
2022-09-20T16:39:01.542Z,0.20
2022-09-20T16:41:30.995Z,0.35
2022-09-20T16:43:59.111Z,0.20
2022-09-20T16:46:28.090Z,0.38
2022-09-20T16:48:56.911Z,0.30
2022-09-20T16:51:26.909Z,0.30
2022-09-20T16:53:56.568Z,0.50
2022-09-20T16:56:26.488Z,0.47
2022-09-20T16:58:55.135Z,0.68
2022-09-20T17:01:23.960Z,0.20
2022-09-20T17:03:52.545Z,0.20
2022-09-20T17:06:20.487Z,0.20
2022-09-20T17:08:48.755Z,0.30
2022-09-20T17:11:21.622Z,0.50
2022-09-20T17:13:51.326Z,0.40
2022-09-20T17:16:21.864Z,0.15
2022-09-20T17:18:54.301Z,0.30
2022-09-20T17:21:23.614Z,0.30
2022-09-20T17:23:55.145Z,0.40
2022-09-20T17:26:26.136Z,0.28
2022-09-20T17:28:56.206Z,0.20
2022-09-20T17:31:28.520Z,0.27
2022-09-20T17:34:00.008Z,0.20
2022-09-20T17:36:29.191Z,0.20
2022-09-20T17:39:03.637Z,0.68
2022-09-20T17:41:36.021Z,0.15
2022-09-20T17:44:07.955Z,0.38
2022-09-20T17:46:37.165Z,0.15
2022-09-20T17:49:07.344Z,0.17
2022-09-20T17:51:37.819Z,0.47
2022-09-20T17:54:06.204Z,0.20
2022-09-20T17:56:36.257Z,0.40
2022-09-20T17:59:05.898Z,0.50
2022-09-20T18:01:36.937Z,0.47
2022-09-20T18:04:06.723Z,0.28
2022-09-20T18:06:36.662Z,0.63
2022-09-20T18:09:07.339Z,0.57
2022-09-20T18:11:38.139Z,0.30
2022-09-20T18:14:10.224Z,0.32
2022-09-20T18:16:38.826Z,0.30
2022-09-20T18:19:09.685Z,0.52
2022-09-20T18:21:39.273Z,0.30
2022-09-20T18:24:08.430Z,0.30
2022-09-20T18:26:38.704Z,0.28
2022-09-20T18:29:09.391Z,0.33
2022-09-20T18:31:38.860Z,0.30
2022-09-20T18:34:09.128Z,0.30
2022-09-20T18:36:39.599Z,0.57
2022-09-20T18:39:08.293Z,0.30
2022-09-20T18:41:39.215Z,0.35
2022-09-20T18:44:08.658Z,0.35
2022-09-20T18:46:38.782Z,0.35
2022-09-20T18:49:09.536Z,0.20
2022-09-20T18:51:40.100Z,0.30
2022-09-20T18:54:10.101Z,0.38
2022-09-20T18:56:41.052Z,0.55
2022-09-20T18:59:14.445Z,0.40
2022-09-20T19:02:07.631Z,0.60
2022-09-20T19:05:06.698Z,0.50
2022-09-20T19:07:46.408Z,0.30
2022-09-20T19:10:23.222Z,0.63
2022-09-20T19:12:58.849Z,0.50
2022-09-20T19:15:42.854Z,1.40
2022-09-20T19:18:27.175Z,0.40
2022-09-20T19:21:00.229Z,0.60
2022-09-20T19:23:45.156Z,0.60
2022-09-20T19:26:21.583Z,0.60
2022-09-20T19:28:52.585Z,0.60
2022-09-20T19:31:25.392Z,0.47
2022-09-20T19:33:55.146Z,0.60
2022-09-20T19:36:23.646Z,0.68
2022-09-20T19:39:05.069Z,0.80
2022-09-20T19:41:45.917Z,0.82
2022-09-20T19:44:29.207Z,1.05
2022-09-20T19:47:09.436Z,0.60
2022-09-20T19:49:48.277Z,0.75
2022-09-20T19:52:16.747Z,1.10
2022-09-20T19:54:46.689Z,1.27
2022-09-20T19:57:20.647Z,1.20
2022-09-20T19:59:51.079Z,1.17
2022-09-20T20:02:19.391Z,1.00
2022-09-20T20:04:47.647Z,1.05
2022-09-20T20:07:27.923Z,0.75
2022-09-20T20:10:03.811Z,0.80
2022-09-20T20:12:36.839Z,0.70
2022-09-20T20:15:19.793Z,0.60
2022-09-20T20:17:56.155Z,0.60
2022-09-20T20:20:30.131Z,1.13
2022-09-20T20:23:39.600Z,0.80
2022-09-20T20:26:09.999Z,0.85
2022-09-20T20:28:38.509Z,0.85
2022-09-20T20:31:12.289Z,0.70
2022-09-20T20:33:40.865Z,0.70
2022-09-20T20:36:11.101Z,0.80
2022-09-20T20:38:39.361Z,0.60
2022-09-20T20:41:09.408Z,0.80
2022-09-20T20:43:39.151Z,0.73
2022-09-20T20:46:10.215Z,1.08
2022-09-20T20:48:38.273Z,0.75
2022-09-20T20:51:09.665Z,0.80
2022-09-20T20:53:39.204Z,0.77
2022-09-20T20:56:09.348Z,0.90
2022-09-20T20:58:40.655Z,0.85
2022-09-20T21:03:39.255Z,0.70
2022-09-20T21:06:07.965Z,0.65
2022-09-20T21:08:37.396Z,0.90
2022-09-20T21:11:08.452Z,0.90
2022-09-20T21:13:36.972Z,1.25
2022-09-20T21:16:11.709Z,1.00
2022-09-20T21:18:40.702Z,1.05
2022-09-20T21:21:16.219Z,1.02
2022-09-20T21:23:45.812Z,1.10
2022-09-20T21:26:15.706Z,0.90
2022-09-20T21:28:44.921Z,0.88
2022-09-20T21:31:14.336Z,0.98
2022-09-20T21:33:43.893Z,0.95
2022-09-20T21:36:13.762Z,0.85
2022-09-20T21:38:42.516Z,1.10
2022-09-20T21:41:11.680Z,0.93
2022-09-20T21:43:42.569Z,1.17
2022-09-20T21:46:16.301Z,1.08
2022-09-20T21:48:44.481Z,0.80
2022-09-20T21:51:13.789Z,0.90
2022-09-20T21:53:42.059Z,1.10
2022-09-20T21:56:11.711Z,1.00
2022-09-20T21:58:40.254Z,0.98
2022-09-20T22:01:11.241Z,0.90
2022-09-20T22:03:42.147Z,1.02
2022-09-20T22:06:12.950Z,1.20
2022-09-20T22:08:42.368Z,0.90
2022-09-20T22:11:14.903Z,0.77
2022-09-20T22:13:43.642Z,0.73
2022-09-20T22:16:13.240Z,0.88
2022-09-20T22:18:43.952Z,0.90
2022-09-20T22:21:13.725Z,1.17
2022-09-20T22:23:42.435Z,0.65
2022-09-20T22:26:12.463Z,0.90
2022-09-20T22:28:40.820Z,0.45
2022-09-20T22:31:10.567Z,0.52
2022-09-20T22:33:44.299Z,0.80
2022-09-20T22:36:14.169Z,0.60
2022-09-20T22:38:42.541Z,1.10
2022-09-20T22:41:10.764Z,0.98
2022-09-20T22:43:38.720Z,0.60
2022-09-20T22:46:08.214Z,0.70
2022-09-20T22:48:36.743Z,0.80
2022-09-20T22:51:08.191Z,0.60
2022-09-20T22:53:36.570Z,0.98
2022-09-20T22:56:08.749Z,0.70
2022-09-20T22:58:38.419Z,0.50
2022-09-20T23:01:08.257Z,0.90
2022-09-20T23:03:36.315Z,0.65
2022-09-20T23:06:05.977Z,0.40
2022-09-20T23:08:34.244Z,0.60
2022-09-20T23:11:03.066Z,0.50
2022-09-20T23:13:31.061Z,0.85
2022-09-20T23:15:58.966Z,0.65
2022-09-20T23:18:26.994Z,0.63
2022-09-20T23:21:02.208Z,1.08
2022-09-20T23:23:31.462Z,0.70
2022-09-20T23:26:07.317Z,0.93
2022-09-20T23:28:35.815Z,0.95
2022-09-20T23:31:05.089Z,0.82
2022-09-20T23:33:33.283Z,0.70
2022-09-20T23:36:01.541Z,0.80
2022-09-20T23:38:30.695Z,0.80
2022-09-20T23:41:03.571Z,0.57
2022-09-20T23:43:31.392Z,0.75
2022-09-20T23:45:59.624Z,0.80
2022-09-20T23:48:27.982Z,0.68
2022-09-20T23:50:56.357Z,0.57
2022-09-20T23:53:24.802Z,0.77
2022-09-20T23:55:53.973Z,0.88
2022-09-20T23:58:21.854Z,0.60
